Time;durP1;ratioP1;P1;durP2;ratioP2;P2;SDS_P1;SDS_P2;PMS_P1;PMS_P2;Temp;Humidity;BMP_temperature;BMP_pressure;BME280_temperature;BME280_humidity;BME280_pressure;Samples;Min_cycle;Max_cycle;Signal;HPM_P1;HPM_P2
2023/02/23 00:01:38;;;;;;;123.60;41.50;;;;;;;7.41;100.00;101319.81;5068883;28;20037;-52
2023/02/23 00:04:04;;;;;;;118.88;42.20;;;;;;;7.41;100.00;101319.81;5069626;28;20471;-51
2023/02/23 00:06:32;;;;;;;116.90;41.50;;;;;;;7.39;100.00;101316.44;5067895;28;20039;-51
2023/02/23 00:08:59;;;;;;;126.25;42.92;;;;;;;7.44;100.00;101324.88;5069745;28;20033;-50
2023/02/23 00:11:26;;;;;;;114.43;40.70;;;;;;;7.44;100.00;101324.88;5069981;28;20032;-51
2023/02/23 00:13:51;;;;;;;116.10;42.45;;;;;;;7.44;100.00;101331.06;5068127;28;20025;-51
2023/02/23 00:16:22;;;;;;;119.90;43.88;;;;;;;7.44;100.00;101327.53;5068503;28;20043;-50
2023/02/23 00:18:50;;;;;;;122.30;42.92;;;;;;;7.44;100.00;101336.41;5069217;28;20044;-50
2023/02/23 00:21:23;;;;;;;116.60;40.78;;;;;;;7.44;100.00;101341.78;5051888;28;20039;-49
2023/02/23 00:23:49;;;;;;;120.78;42.33;;;;;;;7.45;100.00;101334.56;5072225;28;20368;-51
2023/02/23 00:26:16;;;;;;;112.30;39.70;;;;;;;7.44;100.00;101333.75;5065527;28;20145;-50
2023/02/23 00:28:42;;;;;;;113.90;40.55;;;;;;;7.43;100.00;101333.91;5073109;28;20028;-50
2023/02/23 00:31:09;;;;;;;116.00;41.55;;;;;;;7.44;100.00;101327.53;5073370;28;20036;-53
2023/02/23 00:33:34;;;;;;;117.60;41.67;;;;;;;7.46;100.00;101331.75;5070817;28;20067;-50
2023/02/23 00:36:04;;;;;;;114.55;41.80;;;;;;;7.45;100.00;101327.41;5073178;28;20531;-52
2023/02/23 00:38:34;;;;;;;121.38;41.60;;;;;;;7.46;100.00;101321.03;5071695;28;20078;-51
2023/02/23 00:41:04;;;;;;;115.75;41.30;;;;;;;7.47;100.00;101324.56;5073031;28;20037;-50
2023/02/23 00:43:32;;;;;;;114.05;39.30;;;;;;;7.45;100.00;101316.69;5051335;28;20050;-51
2023/02/23 00:45:58;;;;;;;115.53;41.35;;;;;;;7.48;100.00;101318.22;5073114;28;20560;-54
2023/02/23 00:48:23;;;;;;;116.82;41.13;;;;;;;7.47;100.00;101317.38;5071761;28;20020;-52
2023/02/23 00:50:57;;;;;;;114.90;42.03;;;;;;;7.46;100.00;101314.84;5077175;28;20028;-51
2023/02/23 00:53:22;;;;;;;113.03;40.60;;;;;;;7.48;100.00;101315.56;5071982;28;20028;-52
2023/02/23 00:55:48;;;;;;;113.68;41.50;;;;;;;7.49;100.00;101317.22;5072164;28;20035;-51
2023/02/23 00:58:13;;;;;;;122.63;41.92;;;;;;;7.48;100.00;101316.38;5054004;28;20028;-54
2023/02/23 01:00:41;;;;;;;113.80;41.17;;;;;;;7.52;100.00;101324.13;5071470;28;20359;-50
2023/02/23 01:03:06;;;;;;;122.72;41.97;;;;;;;7.49;100.00;101325.25;5072573;28;20391;-51
2023/02/23 01:05:35;;;;;;;116.53;42.05;;;;;;;7.49;100.00;101317.22;5071606;28;20032;-51
2023/02/23 01:08:00;;;;;;;112.15;40.13;;;;;;;7.53;100.00;101323.13;5072924;28;20028;-52
2023/02/23 01:10:25;;;;;;;117.90;40.60;;;;;;;7.48;100.00;101332.47;5071840;28;20120;-52
2023/02/23 01:12:52;;;;;;;109.13;39.30;;;;;;;7.49;100.00;101330.63;5071376;28;20024;-49
2023/02/23 01:15:19;;;;;;;113.25;40.03;;;;;;;7.50;100.00;101332.28;5054387;28;20080;-50
2023/02/23 01:17:44;;;;;;;122.53;42.67;;;;;;;7.49;100.00;101327.94;5072505;28;20424;-50
2023/02/23 01:20:18;;;;;;;112.47;40.03;;;;;;;7.49;100.00;101330.63;5072208;28;20115;-52
2023/02/23 01:22:45;;;;;;;126.40;42.80;;;;;;;7.50;100.00;101326.94;5073132;28;20480;-51
2023/02/23 01:25:11;;;;;;;122.88;40.00;;;;;;;7.51;100.00;101331.31;5072538;28;20112;-50
2023/02/23 01:27:37;;;;;;;121.10;40.00;;;;;;;7.51;100.00;101317.09;5072264;28;20541;-52
2023/02/23 01:30:03;;;;;;;124.03;42.35;;;;;;;7.50;100.00;101323.41;5071485;28;20061;-50
2023/02/23 01:32:29;;;;;;;129.93;41.63;;;;;;;7.45;100.00;101321.19;5050947;28;20065;-50
2023/02/23 01:34:54;;;;;;;122.13;41.20;;;;;;;7.45;100.00;101315.84;5051001;28;20025;-52
2023/02/23 01:37:20;;;;;;;122.65;40.28;;;;;;;7.45;100.00;101332.75;5052469;28;20060;-49
2023/02/23 01:39:45;;;;;;;127.20;42.00;;;;;;;7.45;100.00;101329.22;5050409;28;20028;-50
2023/02/23 01:42:12;;;;;;;126.78;42.40;;;;;;;7.45;100.00;101329.22;5051744;28;20211;-51
2023/02/23 01:44:38;;;;;;;125.47;43.17;;;;;;;7.45;100.00;101332.75;5051867;28;20033;-49
2023/02/23 01:47:04;;;;;;;132.50;43.17;;;;;;;7.45;100.00;101331.91;5052671;28;20280;-52
2023/02/23 01:49:30;;;;;;;132.88;43.25;;;;;;;7.47;100.00;101333.44;5050369;28;20041;-54
2023/02/23 01:52:04;;;;;;;132.35;42.60;;;;;;;7.46;100.00;101326.41;5050511;28;20029;-54
2023/02/23 01:54:32;;;;;;;133.18;43.60;;;;;;;7.47;100.00;101329.91;5051446;28;20074;-52
2023/02/23 01:56:58;;;;;;;;;;;;;;;7.45;100.00;101326.53;5050875;28;20078;-52
2023/02/23 01:59:32;;;;;;;128.93;42.67;;;;;;;7.45;100.00;101329.22;5051395;28;20034;-51
2023/02/23 02:01:58;;;;;;;134.55;42.08;;;;;;;7.42;100.00;101332.19;5050888;28;20456;-54
2023/02/23 02:04:24;;;;;;;131.82;42.45;;;;;;;7.39;100.00;101333.34;5051856;28;20051;-54
2023/02/23 02:06:52;;;;;;;128.50;41.72;;;;;;;7.39;100.00;101337.84;5051502;28;20025;-51
2023/02/23 02:09:19;;;;;;;127.63;41.63;;;;;;;7.38;100.00;101330.84;5050004;28;20040;-51
2023/02/23 02:11:52;;;;;;;133.90;43.03;;;;;;;7.39;100.00;101337.84;5048161;28;20312;-52
2023/02/23 02:14:24;;;;;;;133.10;43.28;;;;;;;7.39;100.00;101337.84;5051077;28;20118;-53
2023/02/23 02:17:44;;;;;;;131.88;42.67;;;;;;;7.39;100.00;101343.22;5049635;28;20047;-51
2023/02/23 02:20:44;;;;;;;130.57;43.40;;;;;;;7.38;100.00;101342.38;4988567;28;20552;-53
2023/02/23 02:23:29;;;;;;;137.02;43.42;;;;;;;7.39;100.00;101340.53;4972768;28;20045;-51
2023/02/23 02:26:08;;;;;;;134.88;41.55;;;;;;;7.40;100.00;101343.09;5048070;28;20136;-51
2023/02/23 02:29:01;;;;;;;134.02;42.88;;;;;;;7.39;100.00;101345.91;5050737;28;20510;-50
2023/02/23 02:32:00;;;;;;;140.52;43.85;;;;;;;7.39;100.00;101345.91;5049658;28;20021;-51
2023/02/23 02:34:59;;;;;;;137.60;43.28;;;;;;;7.39;100.00;101338.69;5024623;28;20048;-50
2023/02/23 02:37:40;;;;;;;145.65;42.83;;;;;;;7.40;100.00;101339.56;5042833;28;20396;-53
2023/02/23 02:40:31;;;;;;;128.73;41.08;;;;;;;7.39;100.00;101335.19;5044233;28;20040;-51
2023/02/23 02:42:56;;;;;;;135.50;41.50;;;;;;;7.37;100.00;101339.84;5051058;28;20167;-50
2023/02/23 02:45:40;;;;;;;133.02;41.70;;;;;;;7.36;100.00;101336.31;5051119;28;20506;-50
2023/02/23 02:48:08;;;;;;;130.02;41.03;;;;;;;7.37;100.00;101345.19;5050611;28;20435;-51
2023/02/23 02:50:39;;;;;;;;;;;;;;;7.37;100.00;101346.06;5052445;28;20464;-50
2023/02/23 02:53:10;;;;;;;130.95;40.97;;;;;;;7.34;100.00;101340.13;5049273;28;19924;-50
2023/02/23 02:55:37;;;;;;;139.45;43.13;;;;;;;7.32;100.00;101334.09;5049150;28;20025;-51
2023/02/23 02:58:08;;;;;;;140.53;42.33;;;;;;;7.33;100.00;101336.63;5047832;28;20037;-51
2023/02/23 04:17:42;;;;;;;125.10;38.00;;;;;;;7.30;100.00;101360.19;5051976;28;20271;-52
2023/02/23 04:20:10;;;;;;;119.25;36.92;;;;;;;7.30;100.00;101368.22;5071433;28;20455;-50
2023/02/23 04:22:35;;;;;;;;;;;;;;;7.28;100.00;101375.56;5064364;28;20037;-50
2023/02/23 04:25:01;;;;;;;129.48;38.05;;;;;;;7.28;100.00;101378.22;5070678;28;20424;-50
2023/02/23 04:27:26;;;;;;;123.30;39.00;;;;;;;7.28;100.00;101383.59;5070214;28;20733;-50
2023/02/23 04:29:51;;;;;;;129.07;38.70;;;;;;;7.28;100.00;101383.59;5068149;28;20586;-50
2023/02/23 04:32:18;;;;;;;129.80;39.13;;;;;;;7.28;100.00;101381.75;5066908;28;20158;-50
2023/02/23 04:34:44;;;;;;;119.10;35.90;;;;;;;7.25;100.00;101385.56;5069488;28;20035;-49
2023/02/23 04:37:11;;;;;;;126.30;37.05;;;;;;;7.23;100.00;101387.53;5069251;28;20032;-50
2023/02/23 04:39:36;;;;;;;116.27;35.97;;;;;;;7.28;100.00;101383.59;5068201;28;20029;-49
2023/02/23 04:42:02;;;;;;;121.85;35.42;;;;;;;7.24;100.00;101386.56;5068506;28;20037;-49
2023/02/23 04:44:27;;;;;;;115.80;36.75;;;;;;;7.23;100.00;101384.00;5069161;28;20119;-50
2023/02/23 04:46:53;;;;;;;118.28;36.83;;;;;;;7.20;100.00;101385.16;5068971;28;20031;-50
2023/02/23 04:49:18;;;;;;;110.78;37.17;;;;;;;7.18;100.00;101381.78;5049952;28;20033;-51
2023/02/23 04:51:43;;;;;;;118.65;37.55;;;;;;;7.14;100.00;101388.41;5068632;28;20264;-50
2023/02/23 04:54:09;;;;;;;128.43;37.13;;;;;;;7.15;100.00;101390.09;5068722;28;20021;-51
2023/02/23 04:56:34;;;;;;;122.10;38.95;;;;;;;7.13;100.00;101384.03;5069384;28;20456;-51
2023/02/23 04:58:59;;;;;;;128.55;37.05;;;;;;;7.12;100.00;101384.22;5067800;28;20025;-53
2023/02/23 05:01:26;;;;;;;126.57;37.13;;;;;;;7.09;100.00;101390.69;5067733;28;20317;-51
2023/02/23 05:03:52;;;;;;;119.88;35.95;;;;;;;7.04;100.00;101399.16;5083019;28;20467;-50
2023/02/23 05:06:18;;;;;;;129.73;36.45;;;;;;;7.01;100.00;101403.97;5067581;28;20089;-50
2023/02/23 05:08:43;;;;;;;127.57;38.60;;;;;;;6.99;100.00;101403.25;5067966;28;20028;-52
2023/02/23 05:11:08;;;;;;;126.88;36.85;;;;;;;7.01;100.00;101406.63;5070827;28;20028;-51
2023/02/23 05:13:34;;;;;;;113.22;34.67;;;;;;;6.98;100.00;101401.56;5072433;28;20040;-51
2023/02/23 05:16:00;;;;;;;121.57;37.08;;;;;;;6.97;100.00;101399.88;5070853;28;20016;-52
2023/02/23 05:18:26;;;;;;;121.68;35.88;;;;;;;6.93;100.00;101406.53;5071848;28;20399;-53
2023/02/23 05:20:52;;;;;;;113.47;36.35;;;;;;;6.88;100.00;101412.28;5072160;28;20435;-50
2023/02/23 05:23:18;;;;;;;117.32;35.17;;;;;;;6.86;100.00;101406.25;5070761;28;20322;-54
2023/02/23 05:25:44;;;;;;;120.68;35.30;;;;;;;6.86;100.00;101411.59;5071705;28;20081;-52
2023/02/23 05:28:09;;;;;;;121.95;36.97;;;;;;;6.87;100.00;101407.06;5071098;28;20028;-51
2023/02/23 05:30:35;;;;;;;111.32;36.13;;;;;;;6.86;100.00;101414.25;5070896;28;20528;-50
2023/02/23 05:33:00;;;;;;;120.88;36.08;;;;;;;6.87;100.00;101413.25;5072251;28;20150;-50
2023/02/23 05:35:25;;;;;;;120.38;35.90;;;;;;;6.92;100.00;101410.16;5071944;28;20127;-50
2023/02/23 05:37:51;;;;;;;120.45;35.67;;;;;;;6.92;100.00;101413.69;5070681;28;20409;-52
2023/02/23 05:40:16;;;;;;;120.07;36.33;;;;;;;6.94;100.00;101416.22;5071178;28;20153;-53
2023/02/23 05:42:42;;;;;;;125.90;36.72;;;;;;;6.95;100.00;101417.91;5071708;28;20387;-50
2023/02/23 05:45:07;;;;;;;121.60;35.88;;;;;;;6.96;100.00;101412.41;5071925;28;20025;-51
2023/02/23 05:47:37;;;;;;;119.90;33.97;;;;;;;6.98;100.00;101423.00;5069703;28;20143;-50
2023/02/23 05:50:04;;;;;;;125.07;37.63;;;;;;;7.00;100.00;101424.53;5052374;28;20029;-51
2023/02/23 05:52:30;;;;;;;118.70;35.72;;;;;;;7.00;100.00;101427.22;5070848;28;20158;-50
2023/02/23 05:54:55;;;;;;;119.97;35.78;;;;;;;7.03;100.00;101424.25;5071744;28;20110;-49
2023/02/23 05:57:21;;;;;;;131.85;38.13;;;;;;;7.05;100.00;101432.09;5069805;28;20476;-49
2023/02/23 05:59:46;;;;;;;130.45;38.70;;;;;;;7.08;100.00;101431.81;5069738;28;20475;-51
2023/02/23 06:02:11;;;;;;;121.65;36.30;;;;;;;7.10;100.00;101431.69;5068464;28;20024;-51
2023/02/23 06:04:37;;;;;;;127.07;36.45;;;;;;;7.09;100.00;101432.69;5070731;28;20126;-51
2023/02/23 06:07:02;;;;;;;123.70;39.20;;;;;;;7.09;100.00;101430.84;5070313;28;20033;-50
2023/02/23 06:09:27;;;;;;;123.88;35.72;;;;;;;7.09;100.00;101432.69;5051533;28;20127;-51
2023/02/23 06:11:53;;;;;;;117.60;35.80;;;;;;;7.09;100.00;101432.69;5070475;28;20115;-53
2023/02/23 06:14:18;;;;;;;112.50;35.70;;;;;;;7.07;100.00;101438.16;5054067;28;20085;-50
2023/02/23 06:16:44;;;;;;;118.78;36.03;;;;;;;7.04;100.00;101436.63;5070042;28;20479;-50
2023/02/23 06:19:10;;;;;;;107.85;33.13;;;;;;;7.01;100.00;101436.06;5050781;28;20052;-51
2023/02/23 06:21:35;;;;;;;114.43;34.92;;;;;;;7.03;100.00;101439.47;5069182;28;20060;-50
2023/02/23 06:24:01;;;;;;;129.10;37.13;;;;;;;7.03;100.00;101436.78;5071666;28;20458;-51
2023/02/23 06:26:26;;;;;;;121.18;36.88;;;;;;;7.08;100.00;101452.38;5049647;28;20059;-51
2023/02/23 06:28:52;;;;;;;111.43;35.03;;;;;;;7.06;100.00;101444.50;5053538;28;20036;-49
2023/02/23 06:31:17;;;;;;;124.57;36.97;;;;;;;7.05;100.00;101448.16;5070107;28;20434;-51
2023/02/23 06:33:43;;;;;;;128.27;35.70;;;;;;;7.04;100.00;101444.66;5049825;28;20052;-53
2023/02/23 06:36:09;;;;;;;130.13;36.28;;;;;;;7.03;100.00;101447.50;5053951;28;20132;-50
2023/02/23 06:38:35;;;;;;;129.25;37.58;;;;;;;7.02;100.00;101443.09;5052791;28;20104;-50
2023/02/23 06:41:06;;;;;;;127.75;35.05;;;;;;;7.07;100.00;101440.84;5071020;28;20079;-50
2023/02/23 06:43:31;;;;;;;114.18;34.83;;;;;;;6.98;100.00;101449.75;5071481;28;20033;-53
2023/02/23 06:45:57;;;;;;;127.03;35.75;;;;;;;6.93;100.00;101455.53;5070801;28;20111;-52
2023/02/23 06:48:22;;;;;;;122.35;36.53;;;;;;;6.89;100.00;101456.78;5052208;28;20071;-56
2023/02/23 06:50:47;;;;;;;121.47;35.40;;;;;;;6.84;100.00;101463.56;5070531;28;20024;-51
2023/02/23 06:53:13;;;;;;;121.50;36.00;;;;;;;6.78;100.00;101462.28;5070023;28;20020;-51
2023/02/23 06:55:38;;;;;;;123.00;35.50;;;;;;;6.76;100.00;101464.25;5070791;28;20029;-52
2023/02/23 06:58:05;;;;;;;119.72;33.72;;;;;;;6.74;100.00;101456.41;5071211;28;20052;-50
2023/02/23 07:00:31;;;;;;;121.50;34.53;;;;;;;6.75;100.00;101463.41;5070068;28;20081;-50
2023/02/23 07:02:57;;;;;;;112.97;32.65;;;;;;;6.76;100.00;101474.97;5052737;28;20472;-51
2023/02/23 07:05:22;;;;;;;110.90;32.17;;;;;;;6.76;100.00;101474.97;5070328;28;20028;-49
2023/02/23 07:07:47;;;;;;;113.07;31.45;;;;;;;6.80;100.00;101489.75;5071515;28;20414;-51
2023/02/23 07:10:13;;;;;;;109.53;32.40;;;;;;;6.79;100.00;101494.28;5051960;28;20037;-51
2023/02/23 07:12:38;;;;;;;108.97;32.50;;;;;;;6.79;100.00;101499.63;5069546;28;20035;-51
2023/02/23 07:15:04;;;;;;;106.72;32.47;;;;;;;6.82;100.00;101507.34;5069368;28;20063;-51
2023/02/23 07:17:29;;;;;;;100.65;28.92;;;;;;;6.89;100.00;101506.78;5069951;28;20091;-52
2023/02/23 07:19:55;;;;;;;99.55;29.35;;;;;;;6.94;100.00;101516.06;5051327;28;20419;-52
2023/02/23 07:22:21;;;;;;;94.85;29.27;;;;;;;7.01;100.00;101519.03;5070307;28;20020;-50
2023/02/23 07:24:47;;;;;;;93.63;29.27;;;;;;;7.07;100.00;101520.31;5070688;28;20032;-50
2023/02/23 07:27:12;;;;;;;89.20;28.70;;;;;;;7.09;100.00;101529.88;5070750;28;20405;-49
2023/02/23 07:29:37;;;;;;;84.60;25.50;;;;;;;7.11;100.00;101535.94;5070510;28;20028;-50
2023/02/23 07:32:04;;;;;;;85.93;26.35;;;;;;;7.17;100.00;101530.00;5063317;28;20500;-51
2023/02/23 07:34:29;;;;;;;67.65;22.58;;;;;;;7.25;100.00;101540.00;5057083;28;20021;-51
2023/02/23 07:36:55;;;;;;;75.57;23.52;;;;;;;7.22;100.00;101537.63;5048170;28;20448;-53
2023/02/23 07:39:20;;;;;;;63.63;22.15;;;;;;;7.30;100.00;101542.25;5047973;28;20122;-50
2023/02/23 07:41:45;;;;;;;67.72;22.52;;;;;;;7.26;100.00;101542.53;5044883;28;20448;-50
2023/02/23 07:44:11;;;;;;;59.15;21.42;;;;;;;7.30;100.00;101555.66;5048385;28;20060;-52
2023/02/23 07:46:36;;;;;;;59.33;20.30;;;;;;;7.33;100.00;101552.69;5048174;28;20033;-50
2023/02/23 07:49:02;;;;;;;62.85;20.83;;;;;;;7.38;100.00;101553.94;5030203;28;20106;-50
2023/02/23 07:51:27;;;;;;;51.47;18.85;;;;;;;7.42;100.00;101547.28;5048394;28;20445;-52
2023/02/23 07:53:54;;;;;;;61.60;20.10;;;;;;;7.50;100.00;101549.25;5047995;28;20506;-51
2023/02/23 07:56:19;;;;;;;46.17;18.13;;;;;;;7.53;100.00;101554.34;5048299;28;20039;-50
2023/02/23 07:58:44;;;;;;;48.45;17.15;;;;;;;7.59;100.00;101558.25;5048434;28;20033;-50
2023/02/23 08:01:11;;;;;;;46.72;17.98;;;;;;;7.64;100.00;101554.16;5048421;28;20472;-51
2023/02/23 08:03:38;;;;;;;48.80;17.67;;;;;;;7.63;100.00;101549.78;5048270;28;20518;-51
2023/02/23 08:06:03;;;;;;;49.60;17.05;;;;;;;7.68;100.00;101547.50;5048112;28;20040;-50
2023/02/23 08:08:29;;;;;;;47.40;17.13;;;;;;;7.80;100.00;101566.09;5047579;28;20029;-49
2023/02/23 08:11:01;;;;;;;49.08;16.42;;;;;;;7.83;100.00;101566.66;5048139;28;20108;-50
2023/02/23 08:13:26;;;;;;;37.53;15.52;;;;;;;7.84;100.00;101568.31;5048204;28;20036;-50
2023/02/23 08:15:52;;;;;;;45.33;17.77;;;;;;;7.99;100.00;101573.22;5047606;28;20056;-50
2023/02/23 08:18:17;;;;;;;41.88;17.55;;;;;;;7.99;100.00;101571.38;5030181;28;20044;-49
2023/02/23 08:20:42;;;;;;;39.33;16.98;;;;;;;7.96;100.00;101566.31;5047868;28;20033;-49
2023/02/23 08:23:08;;;;;;;32.47;16.02;;;;;;;8.05;100.00;101570.78;5047925;28;20089;-52
2023/02/23 08:25:34;;;;;;;30.40;13.40;;;;;;;8.00;100.00;101565.03;5048029;28;20519;-51
2023/02/23 08:28:03;;;;;;;29.58;12.07;;;;;;;8.07;100.00;101558.09;5048101;28;20029;-49
2023/02/23 08:30:29;;;;;;;26.38;11.98;;;;;;;8.37;100.00;101553.41;5060463;28;20472;-51
2023/02/23 08:32:54;;;;;;;26.90;12.48;;;;;;;8.47;100.00;101554.22;5069624;28;20052;-50
2023/02/23 08:35:19;;;;;;;26.15;11.40;;;;;;;8.62;100.00;101551.03;5069574;28;20027;-51
2023/02/23 08:37:45;;;;;;;26.15;11.15;;;;;;;8.90;100.00;101563.41;5069783;28;20032;-53
2023/02/23 08:40:14;;;;;;;23.67;10.60;;;;;;;9.60;100.00;101555.38;5068056;28;20025;-49
2023/02/23 08:42:43;;;;;;;25.00;10.23;;;;;;;10.51;100.00;101556.69;5067597;28;20032;-51
2023/02/23 08:45:09;;;;;;;23.33;10.98;;;;;;;11.10;100.00;101541.28;5071597;28;20153;-48
2023/02/23 08:47:35;;;;;;;19.92;9.18;;;;;;;11.32;100.00;101541.59;5071033;28;20573;-49
2023/02/23 08:50:00;;;;;;;19.50;9.38;;;;;;;11.28;100.00;101532.19;5071557;28;20182;-50
2023/02/23 08:52:25;;;;;;;19.77;9.40;;;;;;;11.16;100.00;101537.06;5071177;28;20020;-50
2023/02/23 08:54:51;;;;;;;21.52;9.27;;;;;;;10.94;100.00;101544.81;5073176;28;20059;-50
2023/02/23 08:57:17;;;;;;;25.92;10.35;;;;;;;10.64;100.00;101538.22;5073399;28;20055;-50
2023/02/23 08:59:42;;;;;;;21.13;10.88;;;;;;;10.33;100.00;101544.19;5073670;28;20165;-50
2023/02/23 09:02:11;;;;;;;23.60;11.00;;;;;;;10.16;100.00;101537.03;5073021;28;20032;-49
2023/02/23 09:04:37;;;;;;;27.20;11.57;;;;;;;9.95;100.00;101544.66;5072868;28;20102;-49
2023/02/23 09:07:03;;;;;;;28.25;12.40;;;;;;;9.80;100.00;101553.34;5073251;28;20092;-53
2023/02/23 09:09:28;;;;;;;25.73;11.95;;;;;;;9.63;100.00;101559.59;5073054;28;20021;-51
2023/02/23 09:11:54;;;;;;;27.40;11.98;;;;;;;9.44;100.00;101553.44;5072984;28;20051;-50
2023/02/23 09:14:20;;;;;;;29.77;12.90;;;;;;;9.23;100.00;101555.63;5072948;28;20465;-50
2023/02/23 09:16:46;;;;;;;30.25;11.95;;;;;;;9.18;100.00;101574.06;5052476;28;20040;-49
2023/02/23 09:19:11;;;;;;;31.60;13.15;;;;;;;9.00;100.00;101582.09;5052767;28;20116;-51
2023/02/23 09:21:37;;;;;;;31.58;13.77;;;;;;;8.86;100.00;101580.81;5034739;28;20047;-50
2023/02/23 09:24:02;;;;;;;29.05;12.30;;;;;;;8.79;100.00;101590.44;5052864;28;20029;-52
2023/02/23 09:26:28;;;;;;;28.23;12.45;;;;;;;8.78;100.00;101594.97;5052604;28;20533;-49
2023/02/23 09:28:54;;;;;;;39.50;14.85;;;;;;;8.80;100.00;101600.22;5052567;28;20021;-50
2023/02/23 09:31:21;;;;;;;29.02;12.18;;;;;;;8.80;100.00;101602.91;5064053;28;20035;-50
2023/02/23 09:33:47;;;;;;;43.60;14.63;;;;;;;8.87;100.00;101609.31;5055278;28;20137;-49
2023/02/23 09:36:17;;;;;;;40.25;13.50;;;;;;;8.90;100.00;101603.69;5052546;28;20029;-51
2023/02/23 09:38:44;;;;;;;32.97;12.00;;;;;;;8.97;100.00;101604.72;5052067;28;20051;-50
2023/02/23 09:41:25;;;;;;;33.58;11.60;;;;;;;9.06;100.00;101602.13;5053432;28;20028;-51
2023/02/23 09:43:59;;;;;;;34.70;12.32;;;;;;;9.06;100.00;101594.94;5037598;28;20021;-49
2023/02/23 09:46:55;;;;;;;27.42;11.73;;;;;;;9.08;100.00;101590.22;5076163;28;20081;-50
2023/02/23 09:49:24;;;;;;;29.02;11.85;;;;;;;9.05;100.00;101595.91;5072530;28;20252;-50
2023/02/23 09:51:56;;;;;;;25.25;11.75;;;;;;;9.00;100.00;101596.41;5072362;28;20453;-50
2023/02/23 09:54:23;;;;;;;30.35;12.35;;;;;;;8.92;100.00;101598.97;5054523;28;20054;-49
2023/02/23 09:56:50;;;;;;;31.10;11.32;;;;;;;8.81;100.00;101599.22;5072210;28;20028;-50
2023/02/23 09:59:18;;;;;;;26.63;12.25;;;;;;;8.76;100.00;101593.44;5073029;28;20032;-50
2023/02/23 10:01:46;;;;;;;30.27;12.45;;;;;;;8.70;100.00;101586.00;5053975;28;20070;-49
2023/02/23 10:04:36;;;;;;;35.15;12.77;;;;;;;8.68;100.00;101594.19;5072292;28;20441;-48
2023/02/23 10:07:29;;;;;;;34.50;13.88;;;;;;;8.71;100.00;101606.47;5072387;28;20031;-52
2023/02/23 10:10:26;;;;;;;34.15;12.30;;;;;;;8.69;100.00;101614.69;5072254;28;20535;-50
2023/02/23 10:12:57;;;;;;;34.03;13.30;;;;;;;8.73;100.00;101620.59;5054689;28;20032;-50
2023/02/23 10:15:32;;;;;;;34.63;13.15;;;;;;;8.69;100.00;101621.88;5071496;28;20472;-49
2023/02/23 10:18:19;;;;;;;26.90;13.52;;;;;;;8.69;100.00;101617.38;5072235;28;20021;-50
2023/02/23 10:21:07;;;;;;;31.58;14.30;;;;;;;8.68;100.00;101615.66;5071629;28;20209;-51
2023/02/23 10:23:39;;;;;;;33.20;13.68;;;;;;;8.66;100.00;101623.06;5071421;28;20495;-50
2023/02/23 10:26:07;;;;;;;34.78;13.95;;;;;;;8.63;100.00;101625.16;5054208;28;20479;-49
2023/02/23 10:28:35;;;;;;;32.90;14.50;;;;;;;8.57;100.00;101629.31;5054188;28;20032;-50
2023/02/23 10:31:03;;;;;;;33.70;14.52;;;;;;;8.53;100.00;101634.13;5071926;28;20028;-49
2023/02/23 10:33:35;;;;;;;33.47;14.45;;;;;;;8.47;100.00;101645.44;5054285;28;20076;-51
2023/02/23 10:36:18;;;;;;;33.60;14.20;;;;;;;8.44;100.00;101645.75;5072493;28;20021;-49
2023/02/23 10:38:45;;;;;;;29.35;13.60;;;;;;;8.38;100.00;101634.75;5037270;28;20025;-50
2023/02/23 10:41:10;;;;;;;35.50;14.30;;;;;;;8.33;100.00;101645.91;5053784;28;20028;-50
2023/02/23 10:43:36;;;;;;;43.65;16.48;;;;;;;8.30;100.00;101646.19;5053370;28;20070;-50
2023/02/23 10:46:01;;;;;;;38.10;14.98;;;;;;;8.30;100.00;101647.03;5053239;28;20028;-50
2023/02/23 10:48:41;;;;;;;46.15;16.23;;;;;;;8.28;100.00;101653.53;5071335;28;20494;-53
2023/02/23 10:51:18;;;;;;;41.47;15.05;;;;;;;8.25;100.00;101653.84;5053531;28;20336;-53
2023/02/23 10:53:44;;;;;;;40.78;16.13;;;;;;;8.28;100.00;101661.59;5053195;28;20435;-50
2023/02/23 10:56:12;;;;;;;43.70;15.93;;;;;;;8.28;100.00;101659.75;5052829;28;20032;-51
2023/02/23 10:58:45;;;;;;;40.85;14.60;;;;;;;8.33;100.00;101665.53;5071970;28;20047;-51
2023/02/23 11:01:12;;;;;;;39.38;14.38;;;;;;;8.37;100.00;101666.06;5052727;28;20119;-50
2023/02/23 11:03:44;;;;;;;54.67;14.60;;;;;;;8.38;100.00;101667.78;5051966;28;20032;-49
2023/02/23 11:06:39;;;;;;;40.95;14.77;;;;;;;8.37;100.00;101663.38;5071528;28;20029;-50
2023/02/23 11:09:24;;;;;;;41.22;14.43;;;;;;;8.44;100.00;101661.84;5070832;28;20024;-50
2023/02/23 11:11:57;;;;;;;33.33;14.07;;;;;;;8.50;100.00;101666.59;5053084;28;20031;-51
2023/02/23 11:14:24;;;;;;;35.22;15.20;;;;;;;8.60;100.00;101671.09;5070802;28;20020;-49
2023/02/23 11:16:49;;;;;;;45.35;15.73;;;;;;;8.66;100.00;101667.81;5066861;28;20037;-50
2023/02/23 11:19:36;;;;;;;54.50;15.98;;;;;;;8.67;100.00;101664.13;5057490;28;20032;-50
2023/02/23 11:22:05;;;;;;;51.38;16.98;;;;;;;8.79;100.00;101658.44;5030059;28;20071;-50
2023/02/23 11:24:36;;;;;;;50.38;17.17;;;;;;;8.85;100.00;101659.66;5047051;28;20063;-50
2023/02/23 11:27:05;;;;;;;53.60;17.23;;;;;;;8.94;100.00;101664.09;5030572;28;20025;-50
2023/02/23 11:29:34;;;;;;;65.88;18.23;;;;;;;8.97;100.00;101662.97;5048417;28;20043;-49
2023/02/23 11:32:04;;;;;;;65.05;18.40;;;;;;;8.99;100.00;101659.13;5048608;28;20188;-50
2023/02/23 11:34:34;;;;;;;58.00;18.65;;;;;;;8.93;100.00;101640.13;5048442;28;20489;-50
2023/02/23 11:37:03;;;;;;;60.55;18.80;;;;;;;8.93;100.00;101643.63;5048757;28;20457;-50
2023/02/23 11:39:28;;;;;;;54.28;20.10;;;;;;;8.97;100.00;101647.69;5061017;28;20039;-50
2023/02/23 11:42:14;;;;;;;62.13;20.13;;;;;;;9.06;100.00;101651.31;5068947;28;20036;-51
2023/02/23 11:44:39;;;;;;;70.53;21.63;;;;;;;9.02;100.00;101657.97;5069689;28;20036;-51
2023/02/23 11:47:05;;;;;;;67.63;21.42;;;;;;;9.05;100.00;101648.78;5068912;28;20031;-51
2023/02/23 11:49:34;;;;;;;63.45;22.38;;;;;;;9.01;100.00;101640.19;5069240;28;20029;-49
2023/02/23 11:52:00;;;;;;;75.15;22.85;;;;;;;9.13;100.00;101646.19;5051188;28;20336;-50
2023/02/23 11:54:32;;;;;;;66.13;21.67;;;;;;;9.30;100.00;101644.50;5050532;28;20028;-51
2023/02/23 11:57:01;;;;;;;73.10;23.05;;;;;;;9.27;100.00;101647.47;5068634;28;20025;-49
2023/02/23 11:59:32;;;;;;;71.50;22.02;;;;;;;9.37;100.00;101637.50;5068965;28;20044;-49
2023/02/23 12:02:25;;;;;;;82.82;24.25;;;;;;;9.41;100.00;101645.09;5068948;28;20096;-49
2023/02/23 12:05:00;;;;;;;71.30;23.27;;;;;;;9.50;100.00;101637.94;5068425;28;20059;-49
2023/02/23 12:07:40;;;;;;;75.53;24.85;;;;;;;9.50;100.00;101639.78;5068656;28;20233;-50
2023/02/23 12:10:24;;;;;;;80.88;24.55;;;;;;;9.63;100.00;101637.53;5051447;28;20036;-49
2023/02/23 12:13:03;;;;;;;78.30;23.77;;;;;;;9.65;100.00;101630.19;5066880;28;20428;-49
2023/02/23 12:15:49;;;;;;;74.57;23.70;;;;;;;9.72;100.00;101636.63;5050614;28;20033;-50
2023/02/23 12:18:22;;;;;;;68.68;24.55;;;;;;;9.75;100.00;101630.94;5051328;28;20028;-50
2023/02/23 12:20:49;;;;;;;68.38;25.80;;;;;;;9.85;100.00;101631.69;5055011;28;20060;-51
2023/02/23 12:23:20;;;;;;;73.90;24.80;;;;;;;9.86;100.00;101632.50;5072220;28;20056;-49
2023/02/23 12:25:50;;;;;;;78.63;27.60;;;;;;;9.79;100.00;101632.28;5072341;28;20028;-49
2023/02/23 12:28:26;;;;;;;79.88;27.20;;;;;;;9.78;100.00;101621.72;5054063;28;20027;-50
2023/02/23 12:31:27;;;;;;;74.15;25.75;;;;;;;9.70;100.00;101630.56;5072228;28;20036;-51
2023/02/23 12:33:57;;;;;;;81.68;27.05;;;;;;;9.75;100.00;101633.63;5072095;28;20189;-49